Twin Springs, Nevada Weather observations

Data are for observation ending at time listed.
 Day   Time    Ave.   Ave.  Ave.  Vector   Max.   Stn.    Total    Solar   Ave.  
  of    of     Air    Rel.  Wind   Wind    Wind   Baro.  Precip.   Rad.    Soil  
Year   Day     Temp.  Hum.  Speed  Dir.    Gust   Pres.                    Temp. 
2016   (PST)    F      %     mph   deg.    mph     mb.     in.     W/m2     F   
------------------------------------------------------------------------------
 272   18:00   66.5    42   12.5   169     29.7    846     0.11       6    75.7
 272   19:00   63.7    48    2.8   186     13.0    846     0.00       0    74.6
 272   20:00   64.7    50    6.2   111     18.1    847     0.00       0    72.8
 272   21:00   61.4    63    6.4   132     11.3    848     0.00       0    71.3
 272   22:00   60.7    62    8.2   118     15.9    848     0.00       0    69.9
 272   23:00   62.2    56    5.6   103     14.8    848     0.00       0    68.7
 273    0:00   63.6    50    7.0   116     14.3    848     0.00       0    67.7
 273    1:00   62.1    55    4.1    77      9.4    848     0.00       0    66.9
 273    2:00   58.3    62    5.6     4     10.0    848     0.00       0    66.3
 273    3:00   56.7    64    3.2    31      8.0    848     0.00       0    65.6
 273    4:00   52.3    73    4.1   325     13.0    849     0.00       0    64.8
 273    5:00   51.1    76    3.8   313      6.3    849     0.00       0    63.9
 273    6:00   48.9    80    4.1   305      6.9    850     0.00       5    63.0
 273    7:00   49.9    72    4.2   319      6.9    850     0.00     135    62.2
 273    8:00   57.5    60    4.4   300      6.6    850     0.00     351    61.5
 273    9:00   65.0    49    2.6   293      6.3    850     0.00     548    61.5
 273   10:00   68.6    45    2.2   285      5.1    850     0.00     225    62.7
 273   11:00   68.8    41    2.7   349      5.2    850     0.00     173    64.3
 273   12:00   74.1    31    2.2   291     10.2    849     0.00     603    65.2
 273   13:00   73.4    31    6.6   121     14.8    849     0.00     343    66.8
 273   14:00   74.0    29    2.5   111      9.4    848     0.00     230    68.4
 273   15:00   75.5    29    9.9   128     16.0    848     0.00     499    69.3
 273   16:00   73.7    30    9.8   129     17.6    848     0.00     178    70.1
 273   17:00   73.0    29    7.8   133     14.9    847     0.00      64    70.5

Return to Twin Springs, Nevada graphs page.


Western Regional Climate Center,wrcc@dri.edu